createdAt,value
2022-08-10T00:01:53.467Z,75.55
2022-08-10T00:04:24.202Z,75.77
2022-08-10T00:06:55.097Z,75.97
2022-08-10T00:09:25.002Z,76.01
2022-08-10T00:11:54.087Z,76.25
2022-08-10T00:14:22.658Z,76.55
2022-08-10T00:16:51.398Z,76.41
2022-08-10T00:19:19.840Z,76.57
2022-08-10T00:21:48.275Z,76.87
2022-08-10T00:24:17.036Z,76.91
2022-08-10T00:28:00.871Z,76.98
2022-08-10T00:29:34.186Z,77.01
2022-08-10T00:32:03.237Z,77.15
2022-08-10T00:34:33.964Z,77.06
2022-08-10T00:37:02.428Z,77.13
2022-08-10T00:39:33.129Z,77.37
2022-08-10T00:42:08.231Z,77.35
2022-08-10T00:44:39.235Z,77.15
2022-08-10T00:47:22.670Z,77.19
2022-08-10T00:49:58.745Z,77.73
2022-08-10T00:52:29.556Z,77.77
2022-08-10T01:13:10.062Z,76.84
2022-08-10T01:26:49.782Z,76.27
2022-08-10T01:29:47.411Z,76.67
2022-08-10T01:32:22.515Z,76.89
2022-08-10T01:34:55.016Z,77.12
2022-08-10T01:37:29.936Z,77.21
2022-08-10T01:40:02.227Z,77.56
2022-08-10T01:42:34.386Z,77.71
2022-08-10T01:45:07.789Z,77.92
2022-08-10T01:47:59.504Z,78.26
2022-08-10T01:50:33.161Z,78.25
2022-08-10T01:53:05.972Z,78.57
2022-08-10T01:55:36.695Z,78.70
2022-08-10T01:58:06.963Z,78.86
2022-08-10T02:00:39.381Z,78.69
2022-08-10T02:03:10.429Z,79.15
2022-08-10T02:05:43.991Z,78.94
2022-08-10T02:08:16.112Z,78.95
2022-08-10T02:10:46.638Z,78.98
2022-08-10T02:13:17.498Z,79.08
2022-08-10T02:16:01.661Z,79.50
2022-08-10T02:18:32.656Z,79.78
2022-08-10T02:21:04.660Z,80.01
2022-08-10T02:23:37.706Z,79.90
2022-08-10T02:26:09.534Z,79.99
2022-08-10T02:28:39.601Z,80.12
2022-08-10T02:31:11.748Z,80.16
2022-08-10T02:33:56.410Z,80.54
2022-08-10T02:36:29.175Z,80.36
2022-08-10T02:39:01.610Z,80.52
2022-08-10T02:45:13.192Z,80.71
2022-08-10T02:45:23.256Z,80.75
2022-08-10T02:47:24.175Z,81.10
2022-08-10T02:50:00.111Z,81.09
2022-08-10T02:52:37.447Z,81.16
2022-08-10T02:55:18.420Z,81.27
2022-08-10T02:58:12.579Z,81.40
2022-08-10T03:00:44.819Z,81.84
2022-08-10T03:03:21.010Z,81.93
2022-08-10T03:05:54.403Z,81.83
2022-08-10T03:08:27.192Z,82.16
2022-08-10T03:11:00.107Z,81.99
2022-08-10T03:13:29.168Z,82.45
2022-08-10T03:15:59.590Z,82.59
2022-08-10T03:18:29.472Z,82.63
2022-08-10T03:20:59.921Z,82.87
2022-08-10T03:23:28.954Z,83.04
2022-08-10T03:25:58.835Z,83.12
2022-08-10T03:28:28.986Z,83.03
2022-08-10T03:30:59.896Z,83.17
2022-08-10T03:33:31.914Z,83.30
2022-08-10T03:36:41.446Z,83.81
2022-08-10T03:38:51.227Z,83.69
2022-08-10T03:41:23.822Z,83.83
2022-08-10T03:43:53.658Z,84.19
2022-08-10T03:46:24.759Z,83.96
2022-08-10T03:48:56.777Z,84.24
2022-08-10T03:51:26.395Z,84.07
2022-08-10T03:54:03.125Z,84.10
2022-08-10T03:56:39.814Z,84.40
2022-08-10T03:59:12.466Z,84.14
2022-08-10T04:02:44.919Z,84.36
2022-08-10T04:04:30.204Z,84.31
2022-08-10T04:07:00.168Z,84.41
2022-08-10T04:09:53.586Z,84.51
2022-08-10T04:12:18.188Z,84.59
2022-08-10T04:14:49.262Z,84.47
2022-08-10T04:17:57.478Z,84.95
2022-08-10T04:20:17.709Z,85.11
2022-08-10T04:22:49.673Z,85.12
2022-08-10T04:25:19.509Z,85.19
2022-08-10T04:27:48.554Z,85.01
2022-08-10T04:30:17.299Z,85.18
2022-08-10T04:32:49.796Z,85.13
2022-08-10T04:35:20.698Z,85.16
2022-08-10T04:37:51.109Z,85.27
2022-08-10T04:40:25.352Z,85.15
2022-08-10T04:43:12.944Z,85.11
2022-08-10T04:45:50.326Z,85.07
2022-08-10T04:48:40.782Z,85.13
2022-08-10T04:51:17.102Z,85.14
2022-08-10T04:54:04.982Z,84.99
2022-08-10T04:56:37.866Z,84.97
2022-08-10T04:59:08.499Z,84.90
2022-08-10T05:02:30.087Z,84.86
2022-08-10T05:04:35.131Z,84.76
2022-08-10T05:07:10.052Z,84.57
2022-08-10T05:10:04.909Z,84.62
2022-08-10T05:12:28.780Z,84.43
2022-08-10T05:15:33.637Z,84.42
2022-08-10T05:18:08.669Z,84.25
2022-08-10T05:20:39.918Z,84.47
2022-08-10T05:23:08.406Z,84.42
2022-08-10T05:25:38.008Z,84.04
2022-08-10T05:28:07.080Z,83.98
2022-08-10T05:30:35.766Z,83.89
2022-08-10T05:33:08.621Z,83.75
2022-08-10T05:35:56.527Z,83.65
2022-08-10T05:38:28.360Z,83.65
2022-08-10T05:40:57.965Z,83.39
2022-08-10T05:43:26.760Z,83.00
2022-08-10T05:46:16.659Z,82.81
2022-08-10T05:48:56.678Z,82.64
2022-08-10T05:51:29.750Z,82.54
2022-08-10T05:54:39.649Z,82.27
2022-08-10T05:57:08.837Z,81.74
2022-08-10T06:00:33.385Z,81.27
2022-08-10T06:02:35.415Z,81.01
2022-08-10T06:05:08.741Z,80.78
2022-08-10T06:07:44.178Z,80.32
2022-08-10T06:10:19.653Z,79.70
2022-08-10T06:13:30.313Z,79.31
2022-08-10T06:16:06.874Z,79.04
2022-08-10T06:18:36.468Z,78.77
2022-08-10T06:21:06.137Z,78.40
2022-08-10T06:23:36.514Z,78.47
2022-08-10T06:26:10.866Z,78.16
2022-08-10T06:29:03.106Z,77.75
2022-08-10T06:31:48.089Z,77.51
2022-08-10T06:34:24.184Z,77.23
2022-08-10T06:36:53.919Z,76.98
2022-08-10T07:28:05.734Z,70.71
2022-08-10T07:30:40.505Z,70.04
2022-08-10T07:33:15.064Z,70.32
2022-08-10T07:35:49.148Z,69.90
2022-08-10T07:38:25.288Z,69.64
2022-08-10T07:41:00.172Z,69.39
2022-08-10T07:43:40.111Z,68.96
2022-08-10T07:46:16.164Z,69.15
2022-08-10T07:48:52.197Z,69.25
2022-08-10T07:51:25.204Z,68.20
2022-08-10T07:54:01.153Z,68.29
2022-08-10T07:56:48.540Z,68.26
2022-08-10T07:59:25.277Z,67.20
2022-08-10T08:01:59.611Z,67.11
2022-08-10T08:04:33.264Z,66.70
2022-08-10T08:07:08.611Z,66.16
2022-08-10T08:09:58.121Z,66.10
2022-08-10T08:12:38.380Z,65.36
2022-08-10T08:16:15.969Z,65.41
2022-08-10T08:18:07.673Z,65.02
2022-08-10T08:20:41.086Z,64.83
2022-08-10T08:24:09.794Z,64.64
2022-08-10T08:26:11.044Z,64.85
2022-08-10T08:28:46.829Z,64.79
2022-08-10T08:31:21.455Z,63.12
2022-08-10T08:33:55.643Z,62.24
2022-08-10T08:36:28.764Z,61.83
2022-08-10T08:39:04.792Z,62.31
2022-08-10T08:42:00.241Z,62.39
2022-08-10T08:44:50.194Z,61.69
2022-08-10T08:48:03.968Z,62.04
2022-08-10T08:50:48.429Z,61.68
2022-08-10T08:54:02.493Z,61.35
2022-08-10T08:56:36.246Z,60.81
2022-08-10T08:59:31.566Z,61.03
2022-08-10T09:02:19.123Z,60.40
2022-08-10T09:05:02.701Z,60.64
2022-08-10T09:08:02.558Z,61.11
2022-08-10T09:10:44.541Z,58.78
2022-08-10T09:13:27.136Z,57.26
2022-08-10T09:16:10.551Z,56.58
2022-08-10T09:18:50.845Z,57.00
2022-08-10T09:21:31.405Z,56.08
2022-08-10T09:24:11.774Z,56.71
2022-08-10T09:26:50.905Z,54.57
2022-08-10T09:29:29.191Z,53.32
2022-08-10T09:36:14.963Z,53.53
2022-08-10T09:36:21.262Z,53.79
2022-08-10T09:38:13.474Z,55.01
2022-08-10T09:40:59.596Z,54.75
2022-08-10T09:43:44.651Z,54.82
2022-08-10T09:46:28.924Z,54.99
2022-08-10T09:49:10.910Z,53.74
2022-08-10T09:52:08.483Z,53.17
2022-08-10T09:54:55.594Z,53.39
2022-08-10T09:57:44.467Z,52.69
2022-08-10T10:00:35.356Z,53.84
2022-08-10T10:03:17.718Z,53.35
2022-08-10T10:06:00.163Z,53.80
2022-08-10T10:08:40.753Z,53.62
2022-08-10T10:11:20.929Z,53.48
2022-08-10T10:14:17.293Z,53.69
2022-08-10T10:17:05.761Z,54.39
2022-08-10T10:19:56.833Z,54.44
2022-08-10T10:22:43.910Z,54.66
2022-08-10T10:25:23.266Z,54.00
2022-08-10T10:28:07.032Z,54.15
2022-08-10T10:30:52.854Z,53.17
2022-08-10T10:33:31.993Z,53.12
2022-08-10T10:36:06.261Z,52.56
2022-08-10T10:38:40.994Z,52.64
2022-08-10T10:41:31.202Z,51.91
2022-08-10T10:44:41.982Z,52.01
2022-08-10T10:47:30.933Z,51.95
2022-08-10T10:50:07.727Z,51.47
2022-08-10T10:52:50.932Z,49.69
2022-08-10T10:55:34.877Z,50.81
2022-08-10T10:58:34.990Z,49.51
2022-08-10T11:01:15.983Z,49.52
2022-08-10T11:04:08.726Z,50.42
2022-08-10T11:06:53.736Z,50.61
2022-08-10T11:10:05.017Z,50.13
2022-08-10T11:12:30.570Z,50.77
2022-08-10T11:15:10.375Z,51.05
2022-08-10T11:17:47.274Z,50.65
2022-08-10T11:20:25.366Z,49.59
2022-08-10T11:23:06.349Z,49.13
2022-08-10T11:25:41.069Z,48.85
2022-08-10T11:28:19.086Z,48.97
2022-08-10T11:31:01.389Z,48.48
2022-08-10T11:34:03.967Z,48.66
2022-08-10T11:36:46.891Z,48.66
2022-08-10T11:39:22.505Z,47.70
2022-08-10T11:42:08.929Z,47.88
2022-08-10T11:44:50.295Z,46.60
2022-08-10T11:47:24.549Z,45.69
2022-08-10T11:50:00.939Z,46.10
2022-08-10T11:52:40.444Z,46.92
2022-08-10T11:55:18.527Z,47.13
2022-08-10T11:57:55.654Z,47.03
2022-08-10T12:00:32.710Z,47.20
2022-08-10T12:03:08.615Z,47.42
2022-08-10T12:05:52.547Z,47.98
2022-08-10T12:10:10.127Z,47.17
2022-08-10T12:11:29.218Z,45.90
2022-08-10T12:14:21.337Z,46.12
2022-08-10T12:17:01.879Z,45.80
2022-08-10T12:20:01.242Z,45.57
2022-08-10T12:22:42.102Z,46.08
2022-08-10T12:25:56.111Z,46.28
2022-08-10T12:28:20.308Z,46.18
2022-08-10T12:30:57.414Z,45.42
2022-08-10T12:34:02.373Z,45.03
2022-08-10T12:36:33.466Z,45.21
2022-08-10T12:39:16.191Z,44.93
2022-08-10T12:41:58.014Z,44.58
2022-08-10T12:44:42.023Z,45.34
2022-08-10T12:47:23.807Z,44.81
2022-08-10T12:50:29.301Z,44.07
2022-08-10T12:53:04.830Z,44.22
2022-08-10T12:55:42.347Z,44.38
2022-08-10T12:58:58.068Z,43.70
2022-08-10T13:01:16.742Z,43.92
2022-08-10T13:04:22.574Z,44.63
2022-08-10T13:06:47.681Z,44.85
2022-08-10T13:09:24.661Z,44.48
2022-08-10T13:12:36.393Z,44.91
2022-08-10T13:14:59.005Z,44.96
2022-08-10T13:17:39.276Z,44.50
2022-08-10T13:20:21.042Z,44.09
2022-08-10T13:22:56.098Z,42.11
2022-08-10T13:25:36.171Z,41.30
2022-08-10T13:28:36.893Z,41.81
2022-08-10T13:31:08.401Z,41.72
2022-08-10T13:34:41.299Z,41.96
2022-08-10T13:40:39.544Z,41.87
2022-08-10T13:43:12.816Z,41.97
2022-08-10T13:45:50.017Z,41.73
2022-08-10T13:48:25.116Z,42.42
2022-08-10T13:51:03.558Z,42.10
2022-08-10T13:53:37.335Z,42.19
2022-08-10T13:56:11.559Z,42.50
2022-08-10T13:58:47.417Z,40.88
2022-08-10T14:01:26.180Z,39.64
2022-08-10T14:03:59.423Z,39.84
2022-08-10T14:06:33.308Z,38.84
2022-08-10T14:09:10.608Z,39.20
2022-08-10T14:11:44.039Z,39.70
2022-08-10T14:14:20.831Z,40.39
2022-08-10T14:16:54.160Z,39.81
2022-08-10T14:19:28.702Z,40.06
2022-08-10T14:22:01.305Z,40.54
2022-08-10T14:24:34.288Z,40.11
2022-08-10T14:27:09.039Z,40.11
2022-08-10T14:29:46.221Z,39.25
2022-08-10T14:32:22.696Z,38.04
2022-08-10T14:36:16.473Z,38.54
2022-08-10T14:37:52.185Z,37.97
2022-08-10T14:40:28.896Z,38.00
2022-08-10T14:43:07.047Z,37.65
2022-08-10T14:45:43.058Z,37.81
2022-08-10T14:48:18.227Z,38.10
2022-08-10T14:50:56.213Z,38.18
2022-08-10T14:53:34.498Z,38.67
2022-08-10T14:56:13.677Z,38.88
2022-08-10T14:59:06.451Z,39.29
2022-08-10T15:02:37.687Z,39.63
2022-08-10T15:04:37.479Z,39.11
2022-08-10T15:07:21.909Z,39.28
2022-08-10T15:10:03.773Z,39.38
2022-08-10T15:12:38.634Z,39.04
2022-08-10T15:15:16.291Z,38.41
2022-08-10T15:17:54.031Z,37.73
2022-08-10T15:20:34.711Z,37.53
2022-08-10T15:23:31.208Z,37.06
2022-08-10T15:26:11.274Z,37.04
2022-08-10T15:29:23.089Z,37.46
2022-08-10T15:31:59.944Z,37.89
2022-08-10T15:34:49.888Z,38.56
2022-08-10T15:37:39.835Z,37.98
2022-08-10T15:40:21.434Z,38.31
2022-08-10T15:43:25.129Z,37.93
2022-08-10T15:46:05.147Z,38.53
2022-08-10T15:48:43.868Z,39.00
2022-08-10T15:51:28.067Z,38.61
2022-08-10T15:54:34.387Z,38.68
2022-08-10T15:57:11.920Z,37.48
2022-08-10T15:59:48.381Z,37.27
2022-08-10T16:02:29.990Z,37.54
2022-08-10T16:05:07.700Z,37.66
2022-08-10T16:07:48.817Z,38.89
2022-08-10T16:10:29.383Z,38.63
2022-08-10T16:13:50.973Z,38.31
2022-08-10T16:16:00.005Z,37.90
2022-08-10T16:18:43.089Z,38.64
2022-08-10T16:21:19.987Z,37.99
2022-08-10T16:24:15.270Z,39.04
2022-08-10T16:26:54.624Z,38.74
2022-08-10T16:29:28.785Z,38.03
2022-08-10T16:32:05.850Z,37.11
2022-08-10T16:34:40.242Z,37.75
2022-08-10T16:37:14.333Z,36.90
2022-08-10T16:39:58.035Z,36.82
2022-08-10T16:42:39.557Z,36.81
2022-08-10T16:45:18.619Z,36.90
2022-08-10T16:47:52.889Z,36.74
2022-08-10T16:50:27.942Z,36.95
2022-08-10T16:53:03.385Z,37.15
2022-08-10T16:55:47.971Z,37.28
2022-08-10T16:58:28.626Z,37.80
2022-08-10T17:01:07.436Z,38.06
2022-08-10T17:04:06.480Z,38.72
2022-08-10T17:06:41.076Z,38.99
2022-08-10T17:09:23.886Z,38.92
2022-08-10T17:11:59.365Z,38.69
2022-08-10T17:14:32.134Z,39.08
2022-08-10T17:17:09.458Z,38.94
2022-08-10T17:19:45.900Z,38.86
2022-08-10T17:22:20.837Z,38.68
2022-08-10T17:24:56.779Z,38.82
2022-08-10T17:28:13.723Z,39.37
2022-08-10T17:30:34.079Z,39.69
2022-08-10T17:33:12.109Z,40.15
2022-08-10T17:35:48.235Z,40.11
2022-08-10T17:38:25.548Z,39.84
2022-08-10T17:41:03.738Z,40.21
2022-08-10T17:43:58.438Z,40.33
2022-08-10T17:46:33.623Z,41.04
2022-08-10T17:49:09.767Z,41.04
2022-08-10T17:51:44.005Z,40.89
2022-08-10T17:54:27.530Z,41.06
2022-08-10T17:57:03.077Z,41.83
2022-08-10T17:59:37.774Z,41.93
2022-08-10T18:02:14.872Z,41.72
2022-08-10T18:04:52.718Z,42.12
2022-08-10T18:07:33.536Z,42.09
2022-08-10T18:10:09.785Z,42.58
2022-08-10T18:12:46.210Z,42.95
2022-08-10T18:15:23.541Z,43.09
2022-08-10T18:17:59.576Z,42.83
2022-08-10T18:20:36.621Z,43.41
2022-08-10T18:23:10.764Z,43.25
2022-08-10T18:25:45.197Z,43.60
2022-08-10T18:28:20.965Z,43.67
2022-08-10T18:30:54.855Z,43.98
2022-08-10T18:33:29.906Z,44.17
2022-08-10T18:36:04.962Z,44.31
2022-08-10T18:38:45.078Z,44.64
2022-08-10T18:41:20.633Z,44.91
2022-08-10T18:44:10.535Z,44.80
2022-08-10T18:46:51.977Z,45.20
2022-08-10T18:49:31.694Z,45.66
2022-08-10T18:52:08.045Z,45.93
2022-08-10T18:54:47.413Z,45.99
2022-08-10T18:57:36.160Z,46.33
2022-08-10T19:00:14.744Z,46.55
2022-08-10T19:03:12.198Z,47.03
2022-08-10T19:06:01.547Z,47.71
2022-08-10T19:08:50.770Z,48.37
2022-08-10T19:11:46.058Z,49.52
2022-08-10T19:14:26.440Z,49.80
2022-08-10T19:17:09.242Z,50.32
2022-08-10T19:19:48.950Z,50.47
2022-08-10T19:22:26.832Z,50.44
2022-08-10T19:25:05.699Z,50.61
2022-08-10T19:27:57.609Z,51.40
2022-08-10T19:30:49.091Z,52.02
2022-08-10T19:33:33.203Z,52.64
2022-08-10T19:36:13.347Z,53.03
2022-08-10T19:38:53.665Z,53.72
2022-08-10T19:41:32.629Z,54.23
2022-08-10T19:44:36.855Z,55.26
2022-08-10T19:47:15.229Z,55.47
2022-08-10T19:49:56.389Z,56.03
2022-08-10T19:52:35.232Z,56.58
2022-08-10T19:55:17.577Z,56.67
2022-08-10T19:57:57.716Z,57.18
2022-08-10T20:00:39.055Z,58.05
2022-08-10T20:03:19.250Z,58.36
2022-08-10T20:06:19.099Z,58.65
2022-08-10T20:09:02.503Z,59.39
2022-08-10T20:11:47.180Z,59.42
2022-08-10T20:14:23.530Z,59.90
2022-08-10T20:17:01.650Z,60.32
2022-08-10T20:19:53.499Z,60.37
2022-08-10T20:22:30.946Z,60.58
2022-08-10T20:25:14.086Z,60.88
2022-08-10T20:28:01.159Z,60.88
2022-08-10T20:30:36.975Z,61.30
2022-08-10T20:33:13.182Z,61.15
2022-08-10T20:35:51.314Z,61.64
2022-08-10T20:38:29.142Z,62.03
2022-08-10T20:41:13.788Z,62.15
2022-08-10T20:43:54.392Z,62.52
2022-08-10T20:46:30.705Z,62.73
2022-08-10T20:49:11.569Z,62.94
2022-08-10T20:51:59.055Z,63.17
2022-08-10T20:54:37.789Z,63.39
2022-08-10T20:57:56.768Z,63.70
2022-08-10T21:00:42.657Z,63.97
2022-08-10T21:03:43.898Z,64.19
2022-08-10T21:06:42.687Z,64.41
2022-08-10T21:09:35.294Z,64.42
2022-08-10T21:12:25.933Z,64.62
2022-08-10T21:15:15.415Z,64.34
2022-08-10T21:18:01.431Z,64.46
2022-08-10T21:20:54.356Z,64.95
2022-08-10T21:23:31.474Z,65.22
2022-08-10T21:26:15.249Z,65.44
2022-08-10T21:29:10.629Z,65.49
2022-08-10T21:31:55.178Z,65.78
2022-08-10T21:37:57.107Z,65.78
2022-08-10T21:41:18.373Z,66.27
2022-08-10T21:44:18.889Z,66.54
2022-08-10T21:47:38.077Z,66.41
2022-08-10T21:50:30.861Z,66.93
2022-08-10T21:53:44.017Z,67.01
2022-08-10T22:00:29.522Z,67.63
2022-08-10T22:03:22.754Z,67.59
2022-08-10T22:06:15.558Z,68.17
2022-08-10T22:09:10.258Z,68.27
2022-08-10T22:12:07.951Z,68.39
2022-08-10T22:15:00.213Z,68.61
2022-08-10T22:18:00.637Z,68.60
2022-08-10T22:20:56.220Z,68.65
2022-08-10T22:24:17.010Z,68.88
2022-08-10T22:27:47.458Z,68.89
2022-08-10T22:30:37.621Z,69.11
2022-08-10T22:31:27.929Z,65.51
2022-08-10T22:33:49.684Z,69.68
2022-08-10T22:37:03.649Z,69.71
2022-08-10T22:40:17.394Z,69.72
2022-08-10T22:43:11.941Z,70.24
2022-08-10T22:46:12.112Z,70.00
2022-08-10T22:48:59.557Z,70.36
2022-08-10T22:51:52.088Z,70.53
2022-08-10T22:54:50.388Z,70.09
2022-08-10T22:57:40.843Z,70.85
2022-08-10T23:00:16.223Z,71.45
2022-08-10T23:02:57.136Z,71.07
2022-08-10T23:05:34.456Z,71.21
2022-08-10T23:08:29.620Z,71.15
2022-08-10T23:11:07.668Z,71.35
2022-08-10T23:13:43.043Z,71.62
2022-08-10T23:16:37.740Z,71.64
2022-08-10T23:19:15.233Z,71.24
2022-08-10T23:22:05.095Z,71.39
2022-08-10T23:24:40.717Z,71.36
2022-08-10T23:27:37.869Z,71.45
2022-08-10T23:30:17.718Z,71.75
2022-08-10T23:32:59.704Z,71.85
2022-08-10T23:36:30.827Z,72.23
2022-08-10T23:38:38.343Z,72.24
2022-08-10T23:41:12.378Z,72.21
2022-08-10T23:44:03.214Z,72.49
2022-08-10T23:46:39.838Z,72.92
2022-08-10T23:49:14.662Z,73.18
2022-08-10T23:51:55.558Z,73.41
2022-08-10T23:54:29.977Z,73.28
2022-08-10T23:57:04.196Z,73.12
2022-08-10T23:59:38.015Z,73.15
